Dora Oldendorff — A8VG5 — position and weather

sailwx.info

Track history (hours):
 
Tides and Currents Weather Stations Pressure Air Temp Water Temp Dewpoint Dewpoint Depression Visibility Wind Speed Wind Dir Waves Ship Positions

Dora Oldendorff

Last reported at 2017-Sep-20 20:03 UTC. Time now 2017-Oct-17 01:03 UTC.
Position N 38°50' E 025°13'.
Warning: this ship's position is 26 days out of date.

Length 178 m; draft 4.6 m.

Type: Cargo ship. MMSI: 636092556.

Date/timePositionNaut miles runAvg speedWind from/ knotsBaromVisibWave heightAir tempDewpointWater temp
2017-Sep-20 20:03N 38°50' E 025°13'2510.1
2017-Sep-20 17:37N 38°28' E 024°59'4810.2
2017-Sep-20 12:56N 37°49' E 024°24'710.8
2017-Sep-20 12:18N 37°44' E 024°18'1010.2
2017-Sep-20 11:18N 37°36' E 024°10'510.2
2017-Sep-20 10:49N 37°32' E 024°07'12 9.8
2017-Sep-20 09:36N 37°21' E 023°60'1810.5
2017-Sep-20 07:52N 37°07' E 023°47'410.6
2017-Sep-20 07:30N 37°03' E 023°44'510.6
2017-Sep-20 07:00N 36°59' E 023°41'510.2
2017-Sep-20 06:30N 36°55' E 023°38'6 9.9
2017-Sep-20 05:53N 36°49' E 023°33'4 9.9
2017-Sep-20 05:30N 36°46' E 023°31'510.0
2017-Sep-20 05:00N 36°42' E 023°28'510.2
2017-Sep-20 04:30N 36°38' E 023°24'710.0
2017-Sep-20 03:49N 36°32' E 023°20'310.0
2017-Sep-20 03:30N 36°29' E 023°18'7 9.9
2017-Sep-20 02:49N 36°23' E 023°14'  
2017-Sep-16 15:45N 43°06' E 014°58'1 6.0
2017-Sep-16 15:30N 43°07' E 014°57'3 6.3
2017-Sep-16 15:00N 43°09' E 014°54'3 6.6
2017-Sep-16 14:30N 43°11' E 014°50'3 6.9
2017-Sep-16 14:00N 43°14' E 014°47'3 6.9
2017-Sep-16 13:30N 43°16' E 014°44'4 6.9
2017-Sep-16 13:00N 43°19' E 014°40'10 7.1
2017-Sep-16 11:38N 43°26' E 014°31'1 7.1
2017-Sep-16 11:30N 43°27' E 014°30'3 7.0
2017-Sep-16 11:00N 43°29' E 014°27'3 7.0
2017-Sep-16 10:30N 43°31' E 014°24'4 7.3
2017-Sep-16 10:00N 43°34' E 014°20'4 7.4
2017-Sep-16 09:30N 43°37' E 014°16'10 7.5
2017-Sep-16 08:10N 43°43' E 014°06'3 7.6
2017-Sep-16 07:47N 43°45' E 014°03'2 7.8
2017-Sep-16 07:28N 43°47' E 014°00'5 7.8
2017-Sep-16 06:48N 43°50' E 013°54'2 7.8
2017-Sep-16 06:30N 43°51' E 013°52'13 7.8
2017-Sep-16 04:50N 43°59' E 013°37'3 8.0
2017-Sep-16 04:27N 44°01' E 013°34'4 8.2
2017-Sep-16 03:57N 44°03' E 013°29'5 8.0
2017-Sep-16 03:21N 44°06' E 013°23'3 8.1
2017-Sep-16 03:00N 44°07' E 013°20'4 8.2
2017-Sep-16 02:30N 44°10' E 013°16'4 7.9
2017-Sep-16 02:00N 44°13' E 013°12'4 7.8
2017-Sep-16 01:30N 44°16' E 013°09'4 7.5
2017-Sep-16 01:00N 44°19' E 013°06'4 7.3
2017-Sep-16 00:30N 44°21' E 013°02'4 8.1
2017-Sep-16 00:00N 44°22' E 012°57'4 8.1
2017-Sep-15 23:29N 44°23' E 012°51'4 7.8
2017-Sep-15 22:59N 44°24' E 012°46'4 7.9
2017-Sep-15 22:30N 44°25' E 012°41'4 8.2
2017-Sep-15 22:00N 44°27' E 012°35'5 8.1
2017-Sep-15 21:23N 44°29' E 012°29'7 7.9
2017-Sep-15 20:25N 44°30' E 012°18'3 5.6
2017-Sep-15 19:58N 44°28' E 012°15'0 0.2
2017-Sep-15 19:13N 44°28' E 012°15'0 0.0
2017-Sep-15 18:58N 44°28' E 012°15'0 0.0
2017-Sep-15 17:01N 44°28' E 012°15'0 0.0
2017-Sep-15 16:58N 44°28' E 012°15'0 0.0
2017-Sep-15 06:58N 44°28' E 012°15'0 0.0
2017-Sep-15 06:13N 44°28' E 012°15'0 0.0
2017-Sep-15 05:52N 44°28' E 012°15'0 0.0
2017-Sep-15 02:46N 44°28' E 012°15'0 0.0
2017-Sep-15 02:25N 44°28' E 012°15'0 0.0
2017-Sep-14 22:43N 44°28' E 012°15'0 0.0
2017-Sep-14 22:19N 44°28' E 012°15'0 0.0
2017-Sep-14 21:58N 44°28' E 012°15'0 0.0
2017-Sep-14 21:19N 44°28' E 012°15'0 0.0
2017-Sep-14 20:55N 44°28' E 012°15'0 0.0
2017-Sep-14 20:19N 44°28' E 012°15'0 0.0
2017-Sep-14 19:58N 44°28' E 012°15'0 0.0
2017-Sep-14 19:28N 44°28' E 012°15'0 0.0
2017-Sep-14 18:58N 44°28' E 012°15'0 0.0
2017-Sep-14 18:28N 44°28' E 012°15'0 0.0
2017-Sep-14 17:52N 44°28' E 012°15'0 0.0
2017-Sep-14 16:58N 44°28' E 012°15'  
Track history (hours):
 
Tides and Currents Weather Stations Pressure Air Temp Water Temp Dewpoint Dewpoint Depression Visibility Wind Speed Wind Dir Waves Ship Positions

Dora Oldendorff

Last reported at 2017-Sep-20 20:03 UTC. Time now 2017-Oct-17 01:03 UTC.
Position N 38°50' E 025°13'.
Warning: this ship's position is 26 days out of date.

Length 178 m; draft 4.6 m.

Type: Cargo ship. MMSI: 636092556.

Date/timePositionNaut miles runAvg speedWind from/ knotsBaromVisibWave heightAir tempDewpointWater temp
2017-Sep-20 20:03N 38°50' E 025°13'2510.1
2017-Sep-20 17:37N 38°28' E 024°59'4810.2
2017-Sep-20 12:56N 37°49' E 024°24'710.8
2017-Sep-20 12:18N 37°44' E 024°18'1010.2
2017-Sep-20 11:18N 37°36' E 024°10'510.2
2017-Sep-20 10:49N 37°32' E 024°07'12 9.8
2017-Sep-20 09:36N 37°21' E 023°60'1810.5
2017-Sep-20 07:52N 37°07' E 023°47'410.6
2017-Sep-20 07:30N 37°03' E 023°44'510.6
2017-Sep-20 07:00N 36°59' E 023°41'510.2
2017-Sep-20 06:30N 36°55' E 023°38'6 9.9
2017-Sep-20 05:53N 36°49' E 023°33'4 9.9
2017-Sep-20 05:30N 36°46' E 023°31'510.0
2017-Sep-20 05:00N 36°42' E 023°28'510.2
2017-Sep-20 04:30N 36°38' E 023°24'710.0
2017-Sep-20 03:49N 36°32' E 023°20'310.0
2017-Sep-20 03:30N 36°29' E 023°18'7 9.9
2017-Sep-20 02:49N 36°23' E 023°14'  
2017-Sep-16 15:45N 43°06' E 014°58'1 6.0
2017-Sep-16 15:30N 43°07' E 014°57'3 6.3
2017-Sep-16 15:00N 43°09' E 014°54'3 6.6
2017-Sep-16 14:30N 43°11' E 014°50'3 6.9
2017-Sep-16 14:00N 43°14' E 014°47'3 6.9
2017-Sep-16 13:30N 43°16' E 014°44'4 6.9
2017-Sep-16 13:00N 43°19' E 014°40'10 7.1
2017-Sep-16 11:38N 43°26' E 014°31'1 7.1
2017-Sep-16 11:30N 43°27' E 014°30'3 7.0
2017-Sep-16 11:00N 43°29' E 014°27'3 7.0
2017-Sep-16 10:30N 43°31' E 014°24'4 7.3
2017-Sep-16 10:00N 43°34' E 014°20'4 7.4
2017-Sep-16 09:30N 43°37' E 014°16'10 7.5
2017-Sep-16 08:10N 43°43' E 014°06'3 7.6
2017-Sep-16 07:47N 43°45' E 014°03'2 7.8
2017-Sep-16 07:28N 43°47' E 014°00'5 7.8
2017-Sep-16 06:48N 43°50' E 013°54'2 7.8
2017-Sep-16 06:30N 43°51' E 013°52'13 7.8
2017-Sep-16 04:50N 43°59' E 013°37'3 8.0
2017-Sep-16 04:27N 44°01' E 013°34'4 8.2
2017-Sep-16 03:57N 44°03' E 013°29'5 8.0
2017-Sep-16 03:21N 44°06' E 013°23'3 8.1
2017-Sep-16 03:00N 44°07' E 013°20'4 8.2
2017-Sep-16 02:30N 44°10' E 013°16'4 7.9
2017-Sep-16 02:00N 44°13' E 013°12'4 7.8
2017-Sep-16 01:30N 44°16' E 013°09'4 7.5
2017-Sep-16 01:00N 44°19' E 013°06'4 7.3
2017-Sep-16 00:30N 44°21' E 013°02'4 8.1
2017-Sep-16 00:00N 44°22' E 012°57'4 8.1
2017-Sep-15 23:29N 44°23' E 012°51'4 7.8
2017-Sep-15 22:59N 44°24' E 012°46'4 7.9
2017-Sep-15 22:30N 44°25' E 012°41'4 8.2
2017-Sep-15 22:00N 44°27' E 012°35'5 8.1
2017-Sep-15 21:23N 44°29' E 012°29'7 7.9
2017-Sep-15 20:25N 44°30' E 012°18'3 5.6
2017-Sep-15 19:58N 44°28' E 012°15'0 0.2
2017-Sep-15 19:13N 44°28' E 012°15'0 0.0
2017-Sep-15 18:58N 44°28' E 012°15'0 0.0
2017-Sep-15 17:01N 44°28' E 012°15'0 0.0
2017-Sep-15 16:58N 44°28' E 012°15'0 0.0
2017-Sep-15 06:58N 44°28' E 012°15'0 0.0
2017-Sep-15 06:13N 44°28' E 012°15'0 0.0
2017-Sep-15 05:52N 44°28' E 012°15'0 0.0
2017-Sep-15 02:46N 44°28' E 012°15'0 0.0
2017-Sep-15 02:25N 44°28' E 012°15'0 0.0
2017-Sep-14 22:43N 44°28' E 012°15'0 0.0
2017-Sep-14 22:19N 44°28' E 012°15'0 0.0
2017-Sep-14 21:58N 44°28' E 012°15'0 0.0
2017-Sep-14 21:19N 44°28' E 012°15'0 0.0
2017-Sep-14 20:55N 44°28' E 012°15'0 0.0
2017-Sep-14 20:19N 44°28' E 012°15'0 0.0
2017-Sep-14 19:58N 44°28' E 012°15'0 0.0
2017-Sep-14 19:28N 44°28' E 012°15'0 0.0
2017-Sep-14 18:58N 44°28' E 012°15'0 0.0
2017-Sep-14 18:28N 44°28' E 012°15'0 0.0
2017-Sep-14 17:52N 44°28' E 012°15'0 0.0
2017-Sep-14 16:58N 44°28' E 012°15'  

Dump ship's entire track history